createdAt,value
2019-03-24T00:00:43.146Z,942.83
2019-03-24T00:01:43.135Z,942.86
2019-03-24T00:02:43.140Z,942.83
2019-03-24T00:03:43.113Z,942.84
2019-03-24T00:04:43.099Z,942.83
2019-03-24T00:05:43.098Z,942.80
2019-03-24T00:06:43.085Z,942.82
2019-03-24T00:07:43.090Z,942.78
2019-03-24T00:08:43.072Z,942.82
2019-03-24T00:09:43.045Z,942.81
2019-03-24T00:10:43.034Z,942.83
2019-03-24T00:11:43.024Z,942.88
2019-03-24T00:12:43.052Z,942.88
2019-03-24T00:13:43.000Z,942.88
2019-03-24T00:14:42.997Z,942.89
2019-03-24T00:15:42.990Z,942.90
2019-03-24T00:16:42.965Z,942.89
2019-03-24T00:17:42.990Z,942.87
2019-03-24T00:18:42.948Z,942.83
2019-03-24T00:19:42.933Z,942.83
2019-03-24T00:20:42.927Z,942.80
2019-03-24T00:21:42.916Z,942.78
2019-03-24T00:22:42.919Z,942.75
2019-03-24T00:23:42.887Z,942.76
2019-03-24T00:24:42.881Z,942.74
2019-03-24T00:25:42.867Z,942.72
2019-03-24T00:26:42.855Z,942.70
2019-03-24T00:27:42.869Z,942.68
2019-03-24T00:28:42.841Z,942.67
2019-03-24T00:29:42.820Z,942.70
2019-03-24T00:30:42.808Z,942.71
2019-03-24T00:31:42.805Z,942.68
2019-03-24T00:32:42.813Z,942.68
2019-03-24T00:33:42.791Z,942.69
2019-03-24T00:34:42.766Z,942.65
2019-03-24T00:35:42.761Z,942.66
2019-03-24T00:36:42.746Z,942.66
2019-03-24T00:37:42.745Z,942.63
2019-03-24T00:38:42.732Z,942.61
2019-03-24T00:39:42.708Z,942.61
2019-03-24T00:40:42.699Z,942.58
2019-03-24T00:41:42.692Z,942.60
2019-03-24T00:42:42.697Z,942.57
2019-03-24T00:43:42.667Z,942.60
2019-03-24T00:44:42.658Z,942.59
2019-03-24T00:45:42.657Z,942.57
2019-03-24T00:46:42.648Z,942.60
2019-03-24T00:47:42.659Z,942.53
2019-03-24T00:48:42.618Z,942.53
2019-03-24T00:49:42.599Z,942.55
2019-03-24T00:50:42.589Z,942.54
2019-03-24T00:51:42.588Z,942.55
2019-03-24T00:52:42.567Z,942.52
2019-03-24T00:53:42.581Z,942.53
2019-03-24T00:54:42.545Z,942.52
2019-03-24T00:55:42.530Z,942.52
2019-03-24T00:56:42.523Z,942.53
2019-03-24T00:57:42.508Z,942.53
2019-03-24T00:58:42.532Z,942.51
2019-03-24T00:59:42.489Z,942.53
2019-03-24T01:00:42.477Z,942.50
2019-03-24T01:01:42.465Z,942.47
2019-03-24T01:02:42.460Z,942.50
2019-03-24T01:03:42.464Z,942.42
2019-03-24T01:04:42.430Z,942.41
2019-03-24T01:05:42.432Z,942.36
2019-03-24T01:06:42.410Z,942.35
2019-03-24T01:07:42.406Z,942.36
2019-03-24T01:08:42.404Z,942.35
2019-03-24T01:09:42.375Z,942.31
2019-03-24T01:10:42.365Z,942.32
2019-03-24T01:11:42.354Z,942.30
2019-03-24T01:12:42.348Z,942.31
2019-03-24T01:13:42.349Z,942.31
2019-03-24T01:14:42.325Z,942.34
2019-03-24T01:15:47.667Z,942.33
2019-03-24T01:16:43.302Z,942.29
2019-03-24T01:17:42.300Z,942.24
2019-03-24T01:18:42.302Z,942.28
2019-03-24T01:19:42.270Z,942.26
2019-03-24T01:20:42.263Z,942.32
2019-03-24T01:21:42.250Z,942.25
2019-03-24T01:22:42.240Z,942.33
2019-03-24T01:23:42.251Z,942.28
2019-03-24T01:24:42.214Z,942.23
2019-03-24T01:25:42.209Z,942.21
2019-03-24T01:26:42.197Z,942.25
2019-03-24T01:27:42.180Z,942.24
2019-03-24T01:28:42.192Z,942.26
2019-03-24T01:29:42.156Z,942.21
2019-03-24T01:30:42.148Z,942.15
2019-03-24T01:31:42.136Z,942.19
2019-03-24T01:32:42.131Z,942.11
2019-03-24T01:33:42.146Z,942.13
2019-03-24T01:34:42.108Z,942.08
2019-03-24T01:35:42.092Z,942.12
2019-03-24T01:36:42.083Z,942.09
2019-03-24T01:37:42.083Z,942.11
2019-03-24T01:38:42.101Z,942.06
2019-03-24T01:39:42.068Z,942.08
2019-03-24T01:40:42.042Z,942.04
2019-03-24T01:41:42.031Z,942.06
2019-03-24T01:42:42.022Z,942.03
2019-03-24T01:43:42.013Z,942.05
2019-03-24T01:44:42.011Z,942.00
2019-03-24T01:45:41.981Z,942.00
2019-03-24T01:46:41.975Z,941.98
2019-03-24T01:47:41.959Z,941.94
2019-03-24T01:48:41.948Z,941.91
2019-03-24T01:49:41.956Z,941.91
2019-03-24T01:50:41.948Z,941.91
2019-03-24T01:51:41.915Z,941.88
2019-03-24T01:52:41.924Z,941.85
2019-03-24T01:53:41.893Z,941.86
2019-03-24T01:54:41.900Z,941.82
2019-03-24T01:55:41.923Z,941.81
2019-03-24T01:56:41.861Z,941.81
2019-03-24T01:57:41.858Z,941.81
2019-03-24T01:58:41.842Z,941.78
2019-03-24T01:59:41.839Z,941.77
2019-03-24T02:00:41.820Z,941.75
2019-03-24T02:01:41.807Z,941.71
2019-03-24T02:02:41.804Z,941.69
2019-03-24T02:03:41.782Z,941.65
2019-03-24T02:04:41.826Z,941.66
2019-03-24T02:05:41.772Z,941.68
2019-03-24T02:06:41.754Z,941.67
2019-03-24T02:07:41.743Z,941.64
2019-03-24T02:08:41.734Z,941.69
2019-03-24T02:09:41.730Z,941.65
2019-03-24T02:10:41.703Z,941.67
2019-03-24T02:11:41.690Z,941.62
2019-03-24T02:12:41.682Z,941.64
2019-03-24T02:13:41.693Z,941.66
2019-03-24T02:14:41.673Z,941.65
2019-03-24T02:15:41.650Z,941.66
2019-03-24T02:16:41.637Z,941.66
2019-03-24T02:17:41.632Z,941.69
2019-03-24T02:18:41.616Z,941.67
2019-03-24T02:19:41.640Z,941.63
2019-03-24T02:20:41.591Z,941.65
2019-03-24T02:21:41.591Z,941.65
2019-03-24T02:22:41.571Z,941.67
2019-03-24T02:23:41.560Z,941.70
2019-03-24T02:24:41.569Z,941.69
2019-03-24T02:25:41.537Z,941.65
2019-03-24T02:26:41.525Z,941.68
2019-03-24T02:27:41.513Z,941.74
2019-03-24T02:28:41.512Z,941.72
2019-03-24T02:29:41.506Z,941.70
2019-03-24T02:30:41.495Z,941.67
2019-03-24T02:31:41.469Z,941.68
2019-03-24T02:32:41.458Z,941.68
2019-03-24T02:33:41.463Z,941.68
2019-03-24T02:34:41.449Z,941.70
2019-03-24T02:35:41.429Z,941.65
2019-03-24T02:36:41.416Z,941.68
2019-03-24T02:37:41.406Z,941.67
2019-03-24T02:38:41.393Z,941.67
2019-03-24T02:39:41.407Z,941.66
2019-03-24T02:40:41.384Z,941.65
2019-03-24T02:41:41.362Z,941.61
2019-03-24T02:42:41.346Z,941.63
2019-03-24T02:43:41.331Z,941.62
2019-03-24T02:44:41.343Z,941.62
2019-03-24T02:45:41.318Z,941.59
2019-03-24T02:46:41.305Z,941.59
2019-03-24T02:47:41.290Z,941.57
2019-03-24T02:48:41.279Z,941.56
2019-03-24T02:49:41.299Z,941.55
2019-03-24T02:50:41.256Z,941.53
2019-03-24T02:51:41.250Z,941.55
2019-03-24T02:52:41.233Z,941.56
2019-03-24T02:53:41.221Z,941.52
2019-03-24T02:54:41.215Z,941.56
2019-03-24T02:55:41.218Z,941.54
2019-03-24T02:56:41.191Z,941.55
2019-03-24T02:57:41.177Z,941.56
2019-03-24T02:58:41.169Z,941.54
2019-03-24T02:59:41.155Z,941.53
2019-03-24T03:00:41.159Z,941.51
2019-03-24T03:01:41.132Z,941.51
2019-03-24T03:02:41.119Z,941.53
2019-03-24T03:03:41.118Z,941.52
2019-03-24T03:04:41.102Z,941.49
2019-03-24T03:05:41.100Z,941.51
2019-03-24T03:06:41.078Z,941.49
2019-03-24T03:07:41.071Z,941.53
2019-03-24T03:08:41.064Z,941.52
2019-03-24T03:09:41.041Z,941.51
2019-03-24T03:10:41.051Z,941.46
2019-03-24T03:11:41.022Z,941.42
2019-03-24T03:12:41.018Z,941.45
2019-03-24T03:13:40.998Z,941.38
2019-03-24T03:14:41.011Z,941.40
2019-03-24T03:15:41.000Z,941.38
2019-03-24T03:16:40.969Z,941.38
2019-03-24T03:17:40.971Z,941.36
2019-03-24T03:18:40.944Z,941.42
2019-03-24T03:19:40.934Z,941.42
2019-03-24T03:20:40.939Z,941.44
2019-03-24T03:21:40.911Z,941.44
2019-03-24T03:22:40.898Z,941.43
2019-03-24T03:23:40.898Z,941.44
2019-03-24T03:24:40.878Z,941.47
2019-03-24T03:25:40.883Z,941.47
2019-03-24T03:26:40.853Z,941.48
2019-03-24T03:27:40.853Z,941.50
2019-03-24T03:28:40.856Z,941.51
2019-03-24T03:29:40.822Z,941.45
2019-03-24T03:30:40.821Z,941.51
2019-03-24T03:31:40.803Z,941.50
2019-03-24T03:32:40.799Z,941.49
2019-03-24T03:33:40.791Z,941.49
2019-03-24T03:34:40.765Z,941.52
2019-03-24T03:35:40.773Z,941.51
2019-03-24T03:36:40.740Z,941.52
2019-03-24T03:37:40.727Z,941.50
2019-03-24T03:38:40.728Z,941.46
2019-03-24T03:39:40.758Z,941.49
2019-03-24T03:40:40.726Z,941.44
2019-03-24T03:41:40.681Z,941.45
2019-03-24T03:42:40.671Z,941.38
2019-03-24T03:43:40.678Z,941.36
2019-03-24T03:44:40.652Z,941.32
2019-03-24T03:45:40.657Z,941.32
2019-03-24T03:46:51.826Z,941.35
2019-03-24T03:47:41.616Z,941.33
2019-03-24T03:48:40.609Z,941.37
2019-03-24T03:49:40.605Z,941.36
2019-03-24T03:50:40.581Z,941.39
2019-03-24T03:51:40.593Z,941.36
2019-03-24T03:52:40.560Z,941.36
2019-03-24T03:53:40.549Z,941.37
2019-03-24T03:54:40.544Z,941.37
2019-03-24T03:55:40.535Z,941.36
2019-03-24T03:56:40.534Z,941.36
2019-03-24T03:57:40.504Z,941.32
2019-03-24T03:58:40.491Z,941.31
2019-03-24T03:59:40.482Z,941.32
2019-03-24T04:00:40.475Z,941.36
2019-03-24T04:01:40.477Z,941.37
2019-03-24T04:02:40.447Z,941.35
2019-03-24T04:03:40.446Z,941.37
2019-03-24T04:04:40.426Z,941.40
2019-03-24T04:05:40.415Z,941.38
2019-03-24T04:06:40.423Z,941.33
2019-03-24T04:07:40.398Z,941.32
2019-03-24T04:08:40.379Z,941.33
2019-03-24T04:09:40.377Z,941.30
2019-03-24T04:10:40.359Z,941.30
2019-03-24T04:11:40.364Z,941.31
2019-03-24T04:12:40.337Z,941.30
2019-03-24T04:13:40.326Z,941.34
2019-03-24T04:14:40.315Z,941.32
2019-03-24T04:15:40.303Z,941.33
2019-03-24T04:16:40.307Z,941.31
2019-03-24T04:17:40.281Z,941.27
2019-03-24T04:18:40.276Z,941.30
2019-03-24T04:19:40.259Z,941.28
2019-03-24T04:20:40.261Z,941.24
2019-03-24T04:21:40.256Z,941.26
2019-03-24T04:22:40.227Z,941.26
2019-03-24T04:23:40.216Z,941.25
2019-03-24T04:24:40.204Z,941.25
2019-03-24T04:25:40.199Z,941.29
2019-03-24T04:26:40.194Z,941.26
2019-03-24T04:27:40.172Z,941.24
2019-03-24T04:28:40.157Z,941.29
2019-03-24T04:29:40.144Z,941.29
2019-03-24T04:30:40.136Z,941.22
2019-03-24T04:31:40.185Z,941.28
2019-03-24T04:32:40.111Z,941.28
2019-03-24T04:33:40.100Z,941.30
2019-03-24T04:34:40.097Z,941.29
2019-03-24T04:35:40.081Z,941.36
2019-03-24T04:36:40.088Z,941.35
2019-03-24T04:37:40.069Z,941.36
2019-03-24T04:38:40.045Z,941.37
2019-03-24T04:39:40.034Z,941.42
2019-03-24T04:40:40.020Z,941.37
2019-03-24T04:41:40.011Z,941.39
2019-03-24T04:42:40.016Z,941.40
2019-03-24T04:43:39.988Z,941.37
2019-03-24T04:44:39.982Z,941.38
2019-03-24T04:45:39.972Z,941.36
2019-03-24T04:46:39.952Z,941.31
2019-03-24T04:47:39.961Z,941.38
2019-03-24T04:48:39.941Z,941.37
2019-03-24T04:49:39.936Z,941.41
2019-03-24T04:50:39.911Z,941.39
2019-03-24T04:51:39.900Z,941.47
2019-03-24T04:52:39.906Z,941.44
2019-03-24T04:53:39.878Z,941.44
2019-03-24T04:54:39.868Z,941.39
2019-03-24T04:55:39.855Z,941.44
2019-03-24T04:56:39.844Z,941.37
2019-03-24T04:57:39.851Z,941.44
2019-03-24T04:58:39.823Z,941.46
2019-03-24T04:59:39.816Z,941.46
2019-03-24T05:00:39.799Z,941.42
2019-03-24T05:01:39.793Z,941.46
2019-03-24T05:02:39.791Z,941.43
2019-03-24T05:03:39.764Z,941.47
2019-03-24T05:04:39.753Z,941.46
2019-03-24T05:05:39.743Z,941.45
2019-03-24T05:06:39.732Z,941.43
2019-03-24T05:07:39.736Z,941.42
2019-03-24T05:08:39.710Z,941.44
2019-03-24T05:09:39.695Z,941.46
2019-03-24T05:10:39.693Z,941.40
2019-03-24T05:11:39.675Z,941.40
2019-03-24T05:12:39.683Z,941.43
2019-03-24T05:13:39.698Z,941.39
2019-03-24T05:14:39.643Z,941.41
2019-03-24T05:15:39.633Z,941.39
2019-03-24T05:16:39.623Z,941.40
2019-03-24T05:17:39.621Z,941.41
2019-03-24T05:18:39.610Z,941.44
2019-03-24T05:19:39.588Z,941.43
2019-03-24T05:20:39.574Z,941.46
2019-03-24T05:21:39.574Z,941.49
2019-03-24T05:22:39.589Z,941.46
2019-03-24T05:23:39.541Z,941.45
2019-03-24T05:24:39.528Z,941.50
2019-03-24T05:25:39.518Z,941.45
2019-03-24T05:26:39.506Z,941.47
2019-03-24T05:27:39.495Z,941.48
2019-03-24T05:28:39.497Z,941.49
2019-03-24T05:29:39.473Z,941.49
2019-03-24T05:30:39.463Z,941.50
2019-03-24T05:31:39.451Z,941.49
2019-03-24T05:32:39.438Z,941.46
2019-03-24T05:33:39.441Z,941.46
2019-03-24T05:34:39.421Z,941.41
2019-03-24T05:35:39.409Z,941.45
2019-03-24T05:36:39.394Z,941.43
2019-03-24T05:37:39.384Z,941.46
2019-03-24T05:38:39.387Z,941.52
2019-03-24T05:39:39.367Z,941.47
2019-03-24T05:40:39.349Z,941.46
2019-03-24T05:41:39.347Z,941.45
2019-03-24T05:42:39.327Z,941.43
2019-03-24T05:43:39.331Z,941.40
2019-03-24T05:44:39.305Z,941.41
2019-03-24T05:45:39.294Z,941.39
2019-03-24T05:46:39.282Z,941.42
2019-03-24T05:47:39.273Z,941.41
2019-03-24T05:48:39.276Z,941.41
2019-03-24T05:49:39.254Z,941.39
2019-03-24T05:50:39.237Z,941.39
2019-03-24T05:51:39.226Z,941.39
2019-03-24T05:52:39.219Z,941.38
2019-03-24T05:53:39.226Z,941.39
2019-03-24T05:54:39.195Z,941.38
2019-03-24T05:55:39.182Z,941.38
2019-03-24T05:56:39.173Z,941.38
2019-03-24T05:57:39.161Z,941.40
2019-03-24T05:58:39.161Z,941.41
2019-03-24T05:59:39.141Z,941.39
2019-03-24T06:00:39.125Z,941.42
2019-03-24T06:01:39.113Z,941.45
2019-03-24T06:02:39.157Z,941.41
2019-03-24T06:03:39.113Z,941.40
2019-03-24T06:04:39.079Z,941.45
2019-03-24T06:05:39.069Z,941.43
2019-03-24T06:06:39.057Z,941.43
2019-03-24T06:07:39.047Z,941.43
2019-03-24T06:08:39.058Z,941.47
2019-03-24T06:09:39.025Z,941.45
2019-03-24T06:10:39.017Z,941.46
2019-03-24T06:11:39.004Z,941.44
2019-03-24T06:12:38.991Z,941.45
2019-03-24T06:13:38.994Z,941.43
2019-03-24T06:14:38.969Z,941.43
2019-03-24T06:15:38.962Z,941.44
2019-03-24T06:16:38.952Z,941.44
2019-03-24T06:17:47.379Z,941.44
2019-03-24T06:18:39.951Z,941.42
2019-03-24T06:19:38.918Z,941.42
2019-03-24T06:20:38.904Z,941.42
2019-03-24T06:21:38.893Z,941.43
2019-03-24T06:22:38.889Z,941.44
2019-03-24T06:23:38.884Z,941.44
2019-03-24T06:24:38.864Z,941.46
2019-03-24T06:25:38.863Z,941.46
2019-03-24T06:26:38.836Z,941.41
2019-03-24T06:27:38.824Z,941.43
2019-03-24T06:28:38.830Z,941.42
2019-03-24T06:29:38.807Z,941.42
2019-03-24T06:30:38.793Z,941.45
2019-03-24T06:31:38.782Z,941.41
2019-03-24T06:32:38.780Z,941.39
2019-03-24T06:33:38.775Z,941.41
2019-03-24T06:34:38.747Z,941.40
2019-03-24T06:35:38.736Z,941.39
2019-03-24T06:36:38.725Z,941.38
2019-03-24T06:37:38.717Z,941.39
2019-03-24T06:38:38.733Z,941.40
2019-03-24T06:39:38.691Z,941.35
2019-03-24T06:40:38.681Z,941.34
2019-03-24T06:41:38.670Z,941.31
2019-03-24T06:42:38.660Z,941.34
2019-03-24T06:43:38.648Z,941.31
2019-03-24T06:44:38.652Z,941.36
2019-03-24T06:45:38.626Z,941.34
2019-03-24T06:46:38.615Z,941.31
2019-03-24T06:47:38.605Z,941.30
2019-03-24T06:48:38.594Z,941.29
2019-03-24T06:49:38.597Z,941.31
2019-03-24T06:50:38.574Z,941.33
2019-03-24T06:51:38.599Z,941.29
2019-03-24T06:52:38.550Z,941.34
2019-03-24T06:53:38.538Z,941.32
2019-03-24T06:54:38.543Z,941.34
2019-03-24T06:55:38.519Z,941.37
2019-03-24T06:56:38.510Z,941.35
2019-03-24T06:57:38.496Z,941.39
2019-03-24T06:58:38.506Z,941.36
2019-03-24T06:59:38.490Z,941.39
2019-03-24T07:00:38.468Z,941.33
2019-03-24T07:01:38.674Z,941.37
2019-03-24T07:02:38.442Z,941.38
2019-03-24T07:03:38.432Z,941.38
2019-03-24T07:04:38.435Z,941.38
2019-03-24T07:05:38.411Z,941.39
2019-03-24T07:06:38.403Z,941.37
2019-03-24T07:07:38.391Z,941.36
2019-03-24T07:08:38.378Z,941.35
2019-03-24T07:09:38.382Z,941.37
2019-03-24T07:10:38.359Z,941.37
2019-03-24T07:11:38.345Z,941.37
2019-03-24T07:12:38.334Z,941.39
2019-03-24T07:13:38.458Z,941.37
2019-03-24T07:14:38.331Z,941.40
2019-03-24T07:15:38.303Z,941.40
2019-03-24T07:16:38.291Z,941.35
2019-03-24T07:17:38.279Z,941.35
2019-03-24T07:18:38.323Z,941.31
2019-03-24T07:19:38.274Z,941.30
2019-03-24T07:20:38.251Z,941.30
2019-03-24T07:21:38.237Z,941.30
2019-03-24T07:22:38.228Z,941.30
2019-03-24T07:23:38.216Z,941.25
2019-03-24T07:24:38.222Z,941.28
2019-03-24T07:25:38.196Z,941.25
2019-03-24T07:26:38.185Z,941.23
2019-03-24T07:27:38.172Z,941.22
2019-03-24T07:28:38.160Z,941.22
2019-03-24T07:29:38.166Z,941.22
2019-03-24T07:30:38.139Z,941.19
2019-03-24T07:31:38.128Z,941.17
2019-03-24T07:32:38.116Z,941.19
2019-03-24T07:33:38.106Z,941.19
2019-03-24T07:34:38.146Z,941.13
2019-03-24T07:35:38.144Z,941.11
2019-03-24T07:36:38.076Z,941.12
2019-03-24T07:37:38.062Z,941.07
2019-03-24T07:38:38.052Z,941.06
2019-03-24T07:39:38.040Z,941.06
2019-03-24T07:40:38.044Z,941.01
2019-03-24T07:41:38.031Z,941.06
2019-03-24T07:42:38.007Z,941.05
2019-03-24T07:43:37.995Z,941.03
2019-03-24T07:44:37.982Z,941.00
2019-03-24T07:45:37.986Z,941.03
2019-03-24T07:46:37.962Z,941.00
2019-03-24T07:47:37.949Z,941.01
2019-03-24T07:48:37.949Z,941.02
2019-03-24T07:49:37.937Z,941.05
2019-03-24T07:50:37.935Z,941.02
2019-03-24T07:51:37.905Z,941.00
2019-03-24T07:52:37.899Z,941.04
2019-03-24T07:53:37.882Z,941.03
2019-03-24T07:54:37.871Z,941.00
2019-03-24T07:55:37.876Z,941.00
2019-03-24T07:56:37.849Z,940.99
2019-03-24T07:57:37.840Z,940.99
2019-03-24T07:58:37.826Z,941.00
2019-03-24T07:59:37.819Z,940.98
2019-03-24T08:00:37.819Z,940.98
2019-03-24T08:01:37.793Z,941.02
2019-03-24T08:02:37.788Z,941.02
2019-03-24T08:03:37.782Z,940.95
2019-03-24T08:04:37.774Z,940.98
2019-03-24T08:05:38.203Z,940.98
2019-03-24T08:06:37.766Z,940.99
2019-03-24T08:07:37.727Z,941.01
2019-03-24T08:08:44.173Z,940.99
2019-03-24T08:09:38.704Z,940.98
2019-03-24T08:10:37.708Z,941.00
2019-03-24T08:11:37.681Z,941.03
2019-03-24T08:12:37.739Z,940.98
2019-03-24T08:13:37.660Z,940.97
2019-03-24T08:14:37.649Z,940.97
2019-03-24T08:15:37.654Z,940.93
2019-03-24T08:16:37.628Z,940.92
2019-03-24T08:17:37.617Z,940.96
2019-03-24T08:18:37.610Z,940.90
2019-03-24T08:19:37.596Z,940.88
2019-03-24T08:20:37.601Z,940.87
2019-03-24T08:21:37.573Z,940.84
2019-03-24T08:22:37.564Z,940.88
2019-03-24T08:23:37.552Z,940.88
2019-03-24T08:24:37.546Z,940.88
2019-03-24T08:25:37.546Z,940.85
2019-03-24T08:26:37.523Z,940.82
2019-03-24T08:27:37.510Z,940.83
2019-03-24T08:28:37.505Z,940.84
2019-03-24T08:29:37.495Z,940.84
2019-03-24T08:30:37.495Z,940.83
2019-03-24T08:31:37.466Z,940.85
2019-03-24T08:32:37.459Z,940.80
2019-03-24T08:33:37.446Z,940.81
2019-03-24T08:34:37.438Z,940.81
2019-03-24T08:35:37.469Z,940.84
2019-03-24T08:36:37.413Z,940.81
2019-03-24T08:37:37.402Z,940.84
2019-03-24T08:38:37.391Z,940.84
2019-03-24T08:39:37.381Z,940.84
2019-03-24T08:40:37.368Z,940.84
2019-03-24T08:41:38.775Z,940.82
2019-03-24T08:42:37.348Z,940.79
2019-03-24T08:43:37.336Z,940.81
2019-03-24T08:44:37.325Z,940.80
2019-03-24T08:45:37.315Z,940.76
2019-03-24T08:46:37.316Z,940.81
2019-03-24T08:47:37.291Z,940.78
2019-03-24T08:48:41.155Z,940.77
2019-03-24T08:49:37.271Z,940.78
2019-03-24T08:50:37.260Z,940.77
2019-03-24T08:51:37.263Z,940.75
2019-03-24T08:52:37.237Z,940.75
2019-03-24T08:53:37.228Z,940.78
2019-03-24T08:54:37.217Z,940.79
2019-03-24T08:55:37.208Z,940.76
2019-03-24T08:56:37.209Z,940.74
2019-03-24T08:57:37.185Z,940.76
2019-03-24T08:58:37.172Z,940.67
2019-03-24T08:59:37.162Z,940.70
2019-03-24T09:00:37.153Z,940.67
2019-03-24T09:01:37.155Z,940.63
2019-03-24T09:02:37.129Z,940.65
2019-03-24T09:03:37.121Z,940.65
2019-03-24T09:04:37.108Z,940.63
2019-03-24T09:05:37.098Z,940.62
2019-03-24T09:06:37.102Z,940.61
2019-03-24T09:07:37.076Z,940.63
2019-03-24T09:08:37.065Z,940.59
2019-03-24T09:09:37.054Z,940.61
2019-03-24T09:10:37.044Z,940.60
2019-03-24T09:11:37.048Z,940.56
2019-03-24T09:12:37.022Z,940.57
2019-03-24T09:13:37.014Z,940.59
2019-03-24T09:14:37.001Z,940.56
2019-03-24T09:15:36.991Z,940.56
2019-03-24T09:16:36.993Z,940.52
2019-03-24T09:17:37.075Z,940.57
2019-03-24T09:18:36.957Z,940.57
2019-03-24T09:19:36.946Z,940.54
2019-03-24T09:20:41.570Z,940.58
2019-03-24T09:21:37.938Z,940.56
2019-03-24T09:22:36.914Z,940.55
2019-03-24T09:23:36.904Z,940.55
2019-03-24T09:24:36.893Z,940.53
2019-03-24T09:25:36.976Z,940.54
2019-03-24T09:26:36.888Z,940.56
2019-03-24T09:27:36.864Z,940.52
2019-03-24T09:28:36.849Z,940.55
2019-03-24T09:29:36.838Z,940.58
2019-03-24T09:30:36.829Z,940.55
2019-03-24T09:31:36.831Z,940.57
2019-03-24T09:32:36.809Z,940.53
2019-03-24T09:33:36.794Z,940.55
2019-03-24T09:34:36.783Z,940.55
2019-03-24T09:35:36.772Z,940.55
2019-03-24T09:36:36.777Z,940.50
2019-03-24T09:37:36.750Z,940.53
2019-03-24T09:38:36.739Z,940.49
2019-03-24T09:39:36.730Z,940.52
2019-03-24T09:40:36.724Z,940.50
2019-03-24T09:41:36.722Z,940.52
2019-03-24T09:42:36.694Z,940.52
2019-03-24T09:43:36.686Z,940.52
2019-03-24T09:44:36.672Z,940.48
2019-03-24T09:45:36.662Z,940.45
2019-03-24T09:46:36.662Z,940.45
2019-03-24T09:47:36.638Z,940.48
2019-03-24T09:48:36.625Z,940.44
2019-03-24T09:49:36.617Z,940.43
2019-03-24T09:50:36.603Z,940.46
2019-03-24T09:51:36.605Z,940.38
2019-03-24T09:52:36.584Z,940.39
2019-03-24T09:53:36.568Z,940.42
2019-03-24T09:54:36.557Z,940.42
2019-03-24T09:55:36.546Z,940.41
2019-03-24T09:56:36.549Z,940.38
2019-03-24T09:57:36.523Z,940.40
2019-03-24T09:58:36.510Z,940.40
2019-03-24T09:59:36.499Z,940.36
2019-03-24T10:00:36.490Z,940.33
2019-03-24T10:01:36.493Z,940.36
2019-03-24T10:02:36.469Z,940.39
2019-03-24T10:03:36.454Z,940.33
2019-03-24T10:04:36.446Z,940.33
2019-03-24T10:05:36.434Z,940.29
2019-03-24T10:06:36.437Z,940.33
2019-03-24T10:07:36.409Z,940.39
2019-03-24T10:08:46.641Z,940.34
2019-03-24T10:09:37.386Z,940.32
2019-03-24T10:10:36.378Z,940.35
2019-03-24T10:11:36.385Z,940.33
2019-03-24T10:12:36.355Z,940.37
2019-03-24T10:13:36.340Z,940.35
2019-03-24T10:14:36.329Z,940.29
2019-03-24T10:15:36.318Z,940.30
2019-03-24T10:16:36.310Z,940.25
2019-03-24T10:17:36.309Z,940.24
2019-03-24T10:18:36.283Z,940.27
2019-03-24T10:19:36.273Z,940.23
2019-03-24T10:20:36.262Z,940.23
2019-03-24T10:21:36.249Z,940.22
2019-03-24T10:22:36.253Z,940.19
2019-03-24T10:23:36.237Z,940.20
2019-03-24T10:24:36.229Z,940.18
2019-03-24T10:25:36.204Z,940.18
2019-03-24T10:26:36.194Z,940.18
2019-03-24T10:27:36.198Z,940.14
2019-03-24T10:28:36.169Z,940.17
2019-03-24T10:29:36.157Z,940.15
2019-03-24T10:30:36.147Z,940.10
2019-03-24T10:31:36.135Z,940.10
2019-03-24T10:32:36.138Z,940.09
2019-03-24T10:33:36.112Z,940.03
2019-03-24T10:34:36.101Z,940.10
2019-03-24T10:35:36.090Z,940.08
2019-03-24T10:36:36.078Z,940.03
2019-03-24T10:37:36.079Z,940.00
2019-03-24T10:38:36.055Z,940.03
2019-03-24T10:39:36.042Z,940.03
2019-03-24T10:40:36.032Z,940.02
2019-03-24T10:41:36.026Z,940.04
2019-03-24T10:42:36.023Z,940.03
2019-03-24T10:43:35.999Z,940.07
2019-03-24T10:44:35.994Z,940.05
2019-03-24T10:45:35.972Z,940.04
2019-03-24T10:46:35.963Z,940.01
2019-03-24T10:47:35.971Z,940.03
2019-03-24T10:48:35.945Z,940.04
2019-03-24T10:49:35.927Z,940.02
2019-03-24T10:50:35.916Z,940.01
2019-03-24T10:51:35.905Z,940.00
2019-03-24T10:52:35.909Z,939.98
2019-03-24T10:53:35.883Z,939.97
2019-03-24T10:54:35.870Z,939.97
2019-03-24T10:55:35.860Z,939.98
2019-03-24T10:56:35.848Z,939.96
2019-03-24T10:57:35.851Z,939.95
2019-03-24T10:58:35.824Z,939.89
2019-03-24T10:59:35.813Z,939.91
2019-03-24T11:00:35.805Z,939.95
2019-03-24T11:01:35.790Z,939.89
2019-03-24T11:02:35.794Z,939.92
2019-03-24T11:03:35.768Z,939.91
2019-03-24T11:04:35.757Z,939.87
2019-03-24T11:05:35.748Z,939.91
2019-03-24T11:06:35.735Z,939.91
2019-03-24T11:07:35.739Z,939.88
2019-03-24T11:08:35.711Z,939.85
2019-03-24T11:09:35.700Z,939.82
2019-03-24T11:10:35.689Z,939.86
2019-03-24T11:11:35.679Z,939.79
2019-03-24T11:12:35.682Z,939.82
2019-03-24T11:13:35.657Z,939.82
2019-03-24T11:14:35.646Z,939.82
2019-03-24T11:15:35.633Z,939.83
2019-03-24T11:16:35.624Z,939.82
2019-03-24T11:17:35.626Z,939.81
2019-03-24T11:18:35.601Z,939.79
2019-03-24T11:19:36.212Z,939.76
2019-03-24T11:20:35.578Z,939.76
2019-03-24T11:21:35.567Z,939.78
2019-03-24T11:22:35.570Z,939.75
2019-03-24T11:23:35.547Z,939.77
2019-03-24T11:24:35.537Z,939.73
2019-03-24T11:25:35.524Z,939.71
2019-03-24T11:26:35.512Z,939.73
2019-03-24T11:27:35.518Z,939.75
2019-03-24T11:28:35.490Z,939.70
2019-03-24T11:29:35.480Z,939.68
2019-03-24T11:30:35.470Z,939.68
2019-03-24T11:31:35.457Z,939.69
2019-03-24T11:32:35.464Z,939.66
2019-03-24T11:33:35.452Z,939.65
2019-03-24T11:34:35.424Z,939.65
2019-03-24T11:35:35.415Z,939.64
2019-03-24T11:36:35.402Z,939.67
2019-03-24T11:37:35.392Z,939.66
2019-03-24T11:38:35.396Z,939.65
2019-03-24T11:39:35.373Z,939.61
2019-03-24T11:40:35.362Z,939.63
2019-03-24T11:41:35.354Z,939.62
2019-03-24T11:42:35.336Z,939.63
2019-03-24T11:43:35.341Z,939.64
2019-03-24T11:44:35.315Z,939.63
2019-03-24T11:45:35.303Z,939.55
2019-03-24T11:46:35.292Z,939.52
2019-03-24T11:47:35.281Z,939.53
2019-03-24T11:48:35.286Z,939.50
2019-03-24T11:49:45.548Z,939.48
2019-03-24T11:50:36.248Z,939.51
2019-03-24T11:51:35.237Z,939.48
2019-03-24T11:52:35.227Z,939.46
2019-03-24T11:53:35.229Z,939.46
2019-03-24T11:54:35.206Z,939.46
2019-03-24T11:55:35.191Z,939.42
2019-03-24T11:56:35.179Z,939.45
2019-03-24T11:57:35.168Z,939.44
2019-03-24T11:58:35.182Z,939.40
2019-03-24T11:59:35.148Z,939.36
2019-03-24T12:00:35.139Z,939.35
2019-03-24T12:01:38.456Z,939.33
2019-03-24T12:02:35.115Z,939.35
2019-03-24T12:03:35.120Z,939.36
2019-03-24T12:04:35.094Z,939.32
2019-03-24T12:05:35.083Z,939.23
2019-03-24T12:06:35.072Z,939.28
2019-03-24T12:07:35.061Z,939.21
2019-03-24T12:08:35.063Z,939.27
2019-03-24T12:09:35.038Z,939.24
2019-03-24T12:10:35.027Z,939.23
2019-03-24T12:11:35.015Z,939.21
2019-03-24T12:12:35.005Z,939.24
2019-03-24T12:13:34.997Z,939.24
2019-03-24T12:14:34.989Z,939.25
2019-03-24T12:15:34.989Z,939.19
2019-03-24T12:16:34.963Z,939.20
2019-03-24T12:17:34.954Z,939.18
2019-03-24T12:18:34.944Z,939.17
2019-03-24T12:19:34.952Z,939.19
2019-03-24T12:20:34.920Z,939.15
2019-03-24T12:21:34.908Z,939.13
2019-03-24T12:22:34.899Z,939.10
2019-03-24T12:23:34.924Z,939.10
2019-03-24T12:24:34.876Z,939.00
2019-03-24T12:25:34.864Z,939.03
2019-03-24T12:26:34.856Z,939.04
2019-03-24T12:27:34.842Z,939.06
2019-03-24T12:28:34.831Z,939.04